createdAt,value
2022-11-17T00:01:20.141Z,7.82
2022-11-17T00:03:48.439Z,7.63
2022-11-17T00:06:15.567Z,6.18
2022-11-17T00:08:42.331Z,7.07
2022-11-17T00:11:09.622Z,7.80
2022-11-17T00:13:54.681Z,10.80
2022-11-17T00:16:22.687Z,7.10
2022-11-17T00:19:08.484Z,7.85
2022-11-17T00:21:35.293Z,8.07
2022-11-17T00:24:02.165Z,8.40
2022-11-17T00:26:31.704Z,7.63
2022-11-17T00:29:05.220Z,8.07
2022-11-17T00:31:52.193Z,8.68
2022-11-17T00:34:23.382Z,8.25
2022-11-17T00:36:54.505Z,8.55
2022-11-17T00:39:22.541Z,8.32
2022-11-17T00:41:49.387Z,9.10
2022-11-17T00:44:16.634Z,7.70
2022-11-17T00:46:43.582Z,8.55
2022-11-17T00:49:11.365Z,7.78
2022-11-17T00:51:38.500Z,7.60
2022-11-17T00:54:06.298Z,8.32
2022-11-17T00:56:33.934Z,7.63
2022-11-17T00:59:00.677Z,8.18
2022-11-17T01:01:27.588Z,8.13
2022-11-17T01:04:03.658Z,13.63
2022-11-17T01:06:33.480Z,8.73
2022-11-17T01:09:21.178Z,9.02
2022-11-17T01:11:49.632Z,7.78
2022-11-17T01:14:22.387Z,8.38
2022-11-17T01:16:49.114Z,8.30
2022-11-17T01:19:17.199Z,7.55
2022-11-17T01:21:43.963Z,8.75
2022-11-17T01:24:11.696Z,8.68
2022-11-17T01:26:39.002Z,7.78
2022-11-17T01:29:09.024Z,7.35
2022-11-17T01:31:39.176Z,8.02
2022-11-17T01:34:06.583Z,7.30
2022-11-17T01:36:55.033Z,8.85
2022-11-17T01:39:22.454Z,7.65
2022-11-17T01:41:50.194Z,7.43
2022-11-17T01:44:41.867Z,8.30
2022-11-17T01:47:20.336Z,9.38
2022-11-17T01:49:48.250Z,14.50
2022-11-17T01:52:15.169Z,7.95
2022-11-17T01:54:43.634Z,10.20
2022-11-17T01:57:14.106Z,9.38
2022-11-17T01:59:55.129Z,8.77
2022-11-17T02:02:21.973Z,8.38
2022-11-17T02:04:56.213Z,9.45
2022-11-17T02:07:26.989Z,9.90
2022-11-17T02:09:54.696Z,9.25
2022-11-17T02:12:22.403Z,7.53
2022-11-17T02:14:49.958Z,8.35
2022-11-17T02:17:17.519Z,9.13
2022-11-17T02:19:45.953Z,9.00
2022-11-17T02:22:50.725Z,7.40
2022-11-17T02:25:40.068Z,6.90
2022-11-17T02:28:13.602Z,8.38
2022-11-17T02:30:54.002Z,9.40
2022-11-17T02:33:27.051Z,8.32
2022-11-17T02:36:03.020Z,7.82
2022-11-17T02:38:44.701Z,7.32
2022-11-17T02:41:19.425Z,7.50
2022-11-17T02:44:04.022Z,7.88
2022-11-17T02:47:19.158Z,9.15
2022-11-17T02:49:49.828Z,8.40
2022-11-17T02:52:18.130Z,8.27
2022-11-17T02:54:44.708Z,8.50
2022-11-17T02:57:33.051Z,8.23
2022-11-17T03:00:04.554Z,8.63
2022-11-17T03:02:55.261Z,8.70
2022-11-17T03:05:49.906Z,8.70
2022-11-17T03:08:22.381Z,9.82
2022-11-17T03:11:02.954Z,8.63
2022-11-17T03:13:51.177Z,9.00
2022-11-17T03:16:26.460Z,9.10
2022-11-17T03:19:27.386Z,9.02
2022-11-17T03:21:59.018Z,6.72
2022-11-17T03:24:40.350Z,8.18
2022-11-17T03:27:17.100Z,8.32
2022-11-17T03:29:47.140Z,8.23
2022-11-17T03:32:14.979Z,8.23
2022-11-17T03:34:45.728Z,7.95
2022-11-17T03:37:14.215Z,9.00
2022-11-17T03:39:47.743Z,10.32
2022-11-17T03:42:24.290Z,8.48
2022-11-17T03:45:23.059Z,7.93
2022-11-17T03:47:53.607Z,7.28
2022-11-17T03:50:35.752Z,8.02
2022-11-17T03:53:03.786Z,9.98
2022-11-17T03:55:50.941Z,8.57
2022-11-17T03:58:18.961Z,9.05
2022-11-17T04:00:49.600Z,7.93
2022-11-17T04:03:16.355Z,7.88
2022-11-17T04:05:43.409Z,7.47
2022-11-17T04:08:10.310Z,9.98
2022-11-17T04:10:57.053Z,8.88
2022-11-17T04:13:41.984Z,10.57
2022-11-17T04:16:08.947Z,7.47
2022-11-17T04:18:35.786Z,8.23
2022-11-17T04:21:02.636Z,8.07
2022-11-17T04:23:29.457Z,7.25
2022-11-17T04:26:15.465Z,8.75
2022-11-17T04:28:48.251Z,7.82
2022-11-17T04:31:14.970Z,7.05
2022-11-17T04:33:44.083Z,10.05
2022-11-17T04:36:12.446Z,8.90
2022-11-17T04:38:49.643Z,7.38
2022-11-17T04:41:35.995Z,7.55
2022-11-17T04:44:03.635Z,7.55
2022-11-17T04:46:31.981Z,7.85
2022-11-17T04:48:59.140Z,7.70
2022-11-17T04:51:26.579Z,8.18
2022-11-17T04:53:53.584Z,8.10
2022-11-17T04:56:21.790Z,8.20
2022-11-17T04:58:49.067Z,8.85
2022-11-17T05:01:17.653Z,8.15
2022-11-17T05:03:45.557Z,8.70
2022-11-17T05:06:17.661Z,8.10
2022-11-17T05:08:44.919Z,9.05
2022-11-17T05:11:31.334Z,8.15
2022-11-17T05:13:58.405Z,8.57
2022-11-17T05:16:43.960Z,8.38
2022-11-17T05:19:13.762Z,8.25
2022-11-17T05:21:40.462Z,8.25
2022-11-17T05:24:08.097Z,9.77
2022-11-17T05:26:36.849Z,8.68
2022-11-17T05:29:06.068Z,9.25
2022-11-17T05:31:33.538Z,10.43
2022-11-17T05:34:01.088Z,9.73
2022-11-17T05:36:28.619Z,9.32
2022-11-17T05:38:55.669Z,11.18
2022-11-17T05:41:23.140Z,10.75
2022-11-17T05:43:50.680Z,8.55
2022-11-17T05:46:21.260Z,9.18
2022-11-17T05:48:50.226Z,12.05
2022-11-17T05:51:18.599Z,9.05
2022-11-17T05:53:45.185Z,9.30
2022-11-17T05:56:30.728Z,9.50
2022-11-17T05:59:12.030Z,9.00
2022-11-17T06:01:44.439Z,8.95
2022-11-17T06:04:11.406Z,9.07
2022-11-17T06:06:38.477Z,9.50
2022-11-17T06:09:05.408Z,8.27
2022-11-17T06:11:32.174Z,10.10
2022-11-17T06:13:59.017Z,9.00
2022-11-17T06:16:29.843Z,9.38
2022-11-17T06:19:10.195Z,8.65
2022-11-17T06:21:56.799Z,7.88
2022-11-17T06:24:23.892Z,8.25
2022-11-17T06:26:50.791Z,9.68
2022-11-17T06:29:17.493Z,8.63
2022-11-17T06:31:45.025Z,10.90
2022-11-17T06:34:12.248Z,10.30
2022-11-17T06:36:39.290Z,14.23
2022-11-17T06:39:05.933Z,9.05
2022-11-17T06:41:32.697Z,9.43
2022-11-17T06:43:59.427Z,8.88
2022-11-17T06:46:38.390Z,8.27
2022-11-17T06:49:06.881Z,7.93
2022-11-17T06:51:38.907Z,8.90
2022-11-17T06:54:10.131Z,8.75
2022-11-17T06:56:36.905Z,8.73
2022-11-17T06:59:04.046Z,9.18
2022-11-17T07:01:30.821Z,9.43
2022-11-17T07:03:57.739Z,8.82
2022-11-17T07:06:24.485Z,7.95
2022-11-17T07:08:51.189Z,10.70
2022-11-17T07:11:18.264Z,8.82
2022-11-17T07:13:45.205Z,7.53
2022-11-17T07:16:21.737Z,7.90
2022-11-17T07:18:50.537Z,7.95
2022-11-17T07:21:18.400Z,8.65
2022-11-17T07:23:46.128Z,9.07
2022-11-17T07:26:13.232Z,9.00
2022-11-17T07:28:40.055Z,17.20
2022-11-17T07:31:08.283Z,8.52
2022-11-17T07:33:37.257Z,8.20
2022-11-17T07:36:09.908Z,10.38
2022-11-17T07:38:38.382Z,8.13
2022-11-17T07:41:06.508Z,8.95
2022-11-17T07:43:34.148Z,8.60
2022-11-17T07:46:14.479Z,8.70
2022-11-17T07:48:42.704Z,7.80
2022-11-17T07:51:09.707Z,7.50
2022-11-17T07:53:36.801Z,7.90
2022-11-17T07:56:08.781Z,8.80
2022-11-17T07:58:36.480Z,8.77
2022-11-17T08:01:07.278Z,7.75
2022-11-17T08:03:34.016Z,9.27
2022-11-17T08:06:08.065Z,9.32
2022-11-17T08:08:35.603Z,8.07
2022-11-17T08:11:06.611Z,8.30
2022-11-17T08:13:34.165Z,12.13
2022-11-17T08:16:01.617Z,7.82
2022-11-17T08:18:29.038Z,15.20
2022-11-17T08:21:13.908Z,10.48
2022-11-17T08:23:42.015Z,7.25
2022-11-17T08:26:10.041Z,8.25
2022-11-17T08:28:38.143Z,7.22
2022-11-17T08:31:06.407Z,8.77
2022-11-17T08:33:33.762Z,8.15
2022-11-17T08:36:02.231Z,8.18
2022-11-17T08:38:29.633Z,9.13
2022-11-17T08:41:01.463Z,7.72
2022-11-17T08:43:28.348Z,7.80
2022-11-17T08:45:55.161Z,10.73
2022-11-17T08:48:21.984Z,9.55
2022-11-17T08:50:49.054Z,9.57
2022-11-17T08:53:18.213Z,9.02
2022-11-17T08:55:45.306Z,14.38
2022-11-17T08:58:12.518Z,8.43
2022-11-17T09:00:40.704Z,9.10
2022-11-17T09:03:09.237Z,8.57
2022-11-17T09:05:47.313Z,9.00
2022-11-17T09:11:10.436Z,9.63
2022-11-17T09:13:38.367Z,9.25
2022-11-17T09:16:10.924Z,9.25
2022-11-17T09:18:39.323Z,9.48
2022-11-17T09:21:08.658Z,9.23
2022-11-17T09:23:36.054Z,10.77
2022-11-17T09:26:07.549Z,11.50
2022-11-17T09:28:34.748Z,11.40
2022-11-17T09:31:09.854Z,11.25
2022-11-17T09:33:37.175Z,9.45
2022-11-17T09:36:04.360Z,12.80
2022-11-17T09:38:31.057Z,15.13
2022-11-17T09:40:59.177Z,10.70
2022-11-17T09:43:28.744Z,14.15
2022-11-17T09:46:04.508Z,11.48
2022-11-17T09:48:55.912Z,10.27
2022-11-17T09:51:24.470Z,10.73
2022-11-17T09:53:52.596Z,11.90
2022-11-17T09:56:19.719Z,9.48
2022-11-17T09:58:52.989Z,12.25
2022-11-17T10:01:22.402Z,11.65
2022-11-17T10:03:51.141Z,10.82
2022-11-17T10:06:21.358Z,13.93
2022-11-17T10:09:06.840Z,13.05
2022-11-17T10:11:39.965Z,12.95
2022-11-17T10:14:10.911Z,12.15
2022-11-17T10:16:38.879Z,12.25
2022-11-17T10:19:19.337Z,12.15
2022-11-17T10:22:10.859Z,10.63
2022-11-17T10:24:44.565Z,11.85
2022-11-17T10:27:27.480Z,12.85
2022-11-17T10:30:26.287Z,17.67
2022-11-17T10:32:58.446Z,11.13
2022-11-17T10:35:28.423Z,12.07
2022-11-17T10:38:08.324Z,14.63
2022-11-17T10:40:40.797Z,12.60
2022-11-17T10:43:13.575Z,11.52
2022-11-17T10:45:49.223Z,13.70
2022-11-17T10:48:30.702Z,11.50
2022-11-17T10:51:05.375Z,11.18
2022-11-17T10:53:46.823Z,12.40
2022-11-17T10:56:17.394Z,10.95
2022-11-17T10:59:04.306Z,10.98
2022-11-17T11:01:35.804Z,10.45
2022-11-17T11:04:04.286Z,13.95
2022-11-17T11:06:32.766Z,10.88
2022-11-17T11:09:31.779Z,11.38
2022-11-17T11:12:00.303Z,10.00
2022-11-17T11:14:39.277Z,10.70
2022-11-17T11:17:16.568Z,14.48
2022-11-17T11:19:52.778Z,10.93
2022-11-17T11:22:36.619Z,11.07
2022-11-17T11:25:15.823Z,9.63
2022-11-17T11:28:30.836Z,9.90
2022-11-17T11:31:21.835Z,9.70
2022-11-17T11:34:01.372Z,8.98
2022-11-17T11:36:48.903Z,12.73
2022-11-17T11:39:36.896Z,9.07
2022-11-17T11:42:08.281Z,10.55
2022-11-17T11:45:04.456Z,10.30
2022-11-17T11:48:08.294Z,11.43
2022-11-17T11:50:48.969Z,12.32
2022-11-17T11:53:22.567Z,9.40
2022-11-17T11:55:53.293Z,11.00
2022-11-17T11:58:22.528Z,9.18
2022-11-17T12:01:03.935Z,9.52
2022-11-17T12:03:36.912Z,9.30
2022-11-17T12:06:36.475Z,10.27
2022-11-17T12:09:29.938Z,8.45
2022-11-17T12:12:03.313Z,9.77
2022-11-17T12:14:36.297Z,9.50
2022-11-17T12:17:25.530Z,9.23
2022-11-17T12:19:57.432Z,8.57
2022-11-17T12:22:29.774Z,8.82
2022-11-17T12:25:15.549Z,10.40
2022-11-17T12:27:48.495Z,8.10
2022-11-17T12:30:33.594Z,8.10
2022-11-17T12:33:04.289Z,8.73
2022-11-17T12:35:35.804Z,9.35
2022-11-17T12:38:15.360Z,9.10
2022-11-17T12:40:52.581Z,7.93
2022-11-17T12:43:23.754Z,9.77
2022-11-17T12:45:53.570Z,8.48
2022-11-17T12:48:33.603Z,8.93
2022-11-17T12:51:12.484Z,9.20
2022-11-17T12:54:16.232Z,8.27
2022-11-17T12:57:13.087Z,8.65
2022-11-17T13:00:07.838Z,8.10
2022-11-17T13:02:56.393Z,9.95
2022-11-17T13:05:25.793Z,7.60
2022-11-17T13:08:14.139Z,7.30
2022-11-17T13:10:41.863Z,7.70
2022-11-17T13:13:11.381Z,8.57
2022-11-17T13:15:38.527Z,8.38
2022-11-17T13:18:11.147Z,8.93
2022-11-17T13:20:38.933Z,8.80
2022-11-17T13:23:13.528Z,12.65
2022-11-17T13:25:40.695Z,9.60
2022-11-17T13:28:25.779Z,9.38
2022-11-17T13:30:52.451Z,8.73
2022-11-17T13:33:22.887Z,8.38
2022-11-17T13:35:51.599Z,7.07
2022-11-17T13:38:23.432Z,10.55
2022-11-17T13:40:52.648Z,8.00
2022-11-17T13:43:23.835Z,8.60
2022-11-17T13:45:51.841Z,8.75
2022-11-17T13:48:39.183Z,8.43
2022-11-17T13:51:21.872Z,9.20
2022-11-17T13:53:58.476Z,9.18
2022-11-17T13:56:49.613Z,8.07
2022-11-17T13:59:18.708Z,10.82
2022-11-17T14:01:45.882Z,8.20
2022-11-17T14:04:23.598Z,9.45
2022-11-17T14:06:57.676Z,9.18
2022-11-17T14:09:25.989Z,8.93
2022-11-17T14:11:52.688Z,8.40
2022-11-17T14:14:25.299Z,8.57
2022-11-17T14:16:52.445Z,8.10
2022-11-17T14:19:19.085Z,8.95
2022-11-17T14:22:27.718Z,9.45
2022-11-17T14:24:57.797Z,10.07
2022-11-17T14:27:27.465Z,9.30
2022-11-17T14:29:54.080Z,9.48
2022-11-17T14:32:20.828Z,9.40
2022-11-17T14:34:47.602Z,8.90
2022-11-17T14:37:14.396Z,9.40
2022-11-17T14:39:41.081Z,10.40
2022-11-17T14:42:09.235Z,8.63
2022-11-17T14:44:35.863Z,8.48
2022-11-17T14:47:02.555Z,9.75
2022-11-17T14:49:32.655Z,11.02
2022-11-17T14:51:59.496Z,7.97
2022-11-17T14:54:26.514Z,9.18
2022-11-17T14:56:53.238Z,8.90
2022-11-17T14:59:19.963Z,7.63
2022-11-17T15:01:46.579Z,9.50
2022-11-17T15:04:48.145Z,12.73
2022-11-17T15:07:02.830Z,9.48
2022-11-17T15:09:29.631Z,8.88
2022-11-17T15:11:56.301Z,9.73
2022-11-17T15:14:22.964Z,11.75
2022-11-17T15:16:49.678Z,9.05
2022-11-17T15:19:16.433Z,8.80
2022-11-17T15:21:43.119Z,8.68
2022-11-17T15:24:10.019Z,14.77
2022-11-17T15:26:36.670Z,9.45
2022-11-17T15:29:03.279Z,9.93
2022-11-17T15:31:30.057Z,9.95
2022-11-17T15:33:56.859Z,9.85
2022-11-17T15:36:24.183Z,11.45
2022-11-17T15:38:50.861Z,10.25
2022-11-17T15:41:17.587Z,10.98
2022-11-17T15:43:45.061Z,9.50
2022-11-17T15:46:16.849Z,12.90
2022-11-17T15:48:49.416Z,11.07
2022-11-17T15:51:18.177Z,12.50
2022-11-17T15:53:46.620Z,11.95
2022-11-17T15:56:19.022Z,10.98
2022-11-17T15:58:46.826Z,12.80
2022-11-17T16:01:15.954Z,11.10
2022-11-17T16:03:46.469Z,12.43
2022-11-17T16:06:13.155Z,12.70
2022-11-17T16:08:40.161Z,14.95
2022-11-17T16:11:07.486Z,12.90
2022-11-17T16:13:34.433Z,13.95
2022-11-17T16:16:01.604Z,16.02
2022-11-17T16:18:29.003Z,15.57
2022-11-17T16:21:04.710Z,16.17
2022-11-17T16:23:38.000Z,14.52
2022-11-17T16:26:05.005Z,15.20
2022-11-17T16:28:31.633Z,14.45
2022-11-17T16:30:58.620Z,14.07
2022-11-17T16:33:25.516Z,14.40
2022-11-17T16:35:52.289Z,15.15
2022-11-17T16:38:19.077Z,13.18
2022-11-17T16:40:45.918Z,17.52
2022-11-17T16:43:13.820Z,14.13
2022-11-17T16:45:45.172Z,14.30
2022-11-17T16:48:13.090Z,12.95
2022-11-17T16:50:41.296Z,16.02
2022-11-17T16:53:08.549Z,14.43
2022-11-17T16:55:36.527Z,13.75
2022-11-17T16:58:04.499Z,13.82
2022-11-17T17:00:31.861Z,14.20
2022-11-17T17:02:58.710Z,12.10
2022-11-17T17:05:25.658Z,13.63
2022-11-17T17:07:52.383Z,14.05
2022-11-17T17:10:19.170Z,12.23
2022-11-17T17:12:46.284Z,14.13
2022-11-17T17:15:13.306Z,11.98
2022-11-17T17:17:40.177Z,12.95
2022-11-17T17:20:07.547Z,12.40
2022-11-17T17:22:34.249Z,12.75
2022-11-17T17:25:00.886Z,13.07
2022-11-17T17:27:30.621Z,12.18
2022-11-17T17:30:00.334Z,12.13
2022-11-17T17:32:26.946Z,11.90
2022-11-17T17:34:53.854Z,14.07
2022-11-17T17:37:20.552Z,11.93
2022-11-17T17:39:47.480Z,14.23
2022-11-17T17:42:14.259Z,14.32
2022-11-17T17:44:41.359Z,12.90
2022-11-17T17:47:08.207Z,11.38
2022-11-17T17:49:34.971Z,13.77
2022-11-17T17:52:01.882Z,12.90
2022-11-17T17:54:28.561Z,12.57
2022-11-17T17:56:57.543Z,13.50
2022-11-17T17:59:24.159Z,15.10
2022-11-17T18:01:51.810Z,13.05
2022-11-17T18:04:18.589Z,15.68
2022-11-17T18:06:49.113Z,15.15
2022-11-17T18:09:19.737Z,16.25
2022-11-17T18:11:50.299Z,15.50
2022-11-17T18:14:21.429Z,16.38
2022-11-17T18:16:49.608Z,18.63
2022-11-17T18:19:17.395Z,16.73
2022-11-17T18:21:44.847Z,15.55
2022-11-17T18:24:12.852Z,20.60
2022-11-17T18:26:41.165Z,14.55
2022-11-17T18:29:12.076Z,16.90
2022-11-17T18:31:38.950Z,16.67
2022-11-17T18:34:33.364Z,17.00
2022-11-17T18:37:00.142Z,18.98
2022-11-17T18:39:28.654Z,16.10
2022-11-17T18:41:56.384Z,18.67
2022-11-17T18:44:23.287Z,19.35
2022-11-17T18:46:50.385Z,17.52
2022-11-17T18:49:17.995Z,19.08
2022-11-17T18:51:45.190Z,15.73
2022-11-17T18:54:13.203Z,16.77
2022-11-17T18:56:40.833Z,15.25
2022-11-17T18:59:15.434Z,16.58
2022-11-17T19:01:44.067Z,18.67
2022-11-17T19:04:12.948Z,16.95
2022-11-17T19:06:39.807Z,18.42
2022-11-17T19:09:07.168Z,15.07
2022-11-17T19:11:34.992Z,15.82
2022-11-17T19:14:04.311Z,17.45
2022-11-17T19:16:32.304Z,18.20
2022-11-17T19:18:59.605Z,18.10
2022-11-17T19:21:31.803Z,20.85
2022-11-17T19:24:01.288Z,17.58
2022-11-17T19:26:30.718Z,21.77
2022-11-17T19:28:59.274Z,19.73
2022-11-17T19:31:26.720Z,20.08
2022-11-17T19:33:54.186Z,16.95
2022-11-17T19:36:23.791Z,16.35
2022-11-17T19:38:51.988Z,16.73
2022-11-17T19:41:21.390Z,18.60
2022-11-17T19:43:48.359Z,17.75
2022-11-17T19:46:17.292Z,14.18
2022-11-17T19:48:44.415Z,16.88
2022-11-17T19:51:23.266Z,17.58
2022-11-17T19:53:51.977Z,17.35
2022-11-17T19:56:19.021Z,17.05
2022-11-17T19:58:46.675Z,18.60
2022-11-17T20:01:15.838Z,17.33
2022-11-17T20:03:43.075Z,18.25
2022-11-17T20:06:11.670Z,18.92
2022-11-17T20:08:39.130Z,18.90
2022-11-17T20:11:12.904Z,20.17
2022-11-17T20:13:39.779Z,20.67
2022-11-17T20:16:12.433Z,18.02
2022-11-17T20:18:42.808Z,19.95
2022-11-17T20:21:10.835Z,17.90
2022-11-17T20:23:38.316Z,22.42
2022-11-17T20:26:06.496Z,23.10
2022-11-17T20:28:35.069Z,23.35
2022-11-17T20:31:15.989Z,20.52
2022-11-17T20:33:43.670Z,24.48
2022-11-17T20:36:14.024Z,22.58
2022-11-17T20:38:41.382Z,21.33
2022-11-17T20:41:08.832Z,19.65
2022-11-17T20:43:36.111Z,21.10
2022-11-17T20:46:03.829Z,22.42
2022-11-17T20:48:31.822Z,18.45
2022-11-17T20:51:00.438Z,16.45
2022-11-17T20:53:27.657Z,22.15
2022-11-17T20:55:58.227Z,21.35
2022-11-17T20:58:31.141Z,21.02
2022-11-17T21:00:58.261Z,21.33
2022-11-17T21:03:26.850Z,21.92
2022-11-17T21:05:59.174Z,25.27
2022-11-17T21:08:27.503Z,18.42
2022-11-17T21:11:02.298Z,18.73
2022-11-17T21:13:30.458Z,18.85
2022-11-17T21:16:04.428Z,19.80
2022-11-17T21:18:31.174Z,18.75
2022-11-17T21:21:01.887Z,20.25
2022-11-17T21:23:28.679Z,21.00
2022-11-17T21:25:55.239Z,18.25
2022-11-17T21:28:22.138Z,16.48
2022-11-17T21:30:49.002Z,17.83
2022-11-17T21:33:15.748Z,20.13
2022-11-17T21:35:42.806Z,18.50
2022-11-17T21:38:11.271Z,18.17
2022-11-17T21:40:37.978Z,17.83
2022-11-17T21:43:05.407Z,18.25
2022-11-17T21:45:33.266Z,18.38
2022-11-17T21:47:59.995Z,19.17
2022-11-17T21:50:26.888Z,17.52
2022-11-17T21:52:53.756Z,19.05
2022-11-17T21:55:20.533Z,17.88
2022-11-17T21:57:50.385Z,16.75
2022-11-17T22:00:18.081Z,16.27
2022-11-17T22:02:44.805Z,16.83
2022-11-17T22:05:11.795Z,17.42
2022-11-17T22:07:38.545Z,16.95
2022-11-17T22:10:05.849Z,20.70
2022-11-17T22:12:32.544Z,17.80
2022-11-17T22:14:59.386Z,16.30
2022-11-17T22:17:26.038Z,18.98
2022-11-17T22:19:52.733Z,18.88
2022-11-17T22:22:19.382Z,19.35
2022-11-17T22:24:49.732Z,18.10
2022-11-17T22:27:16.859Z,16.40
2022-11-17T22:29:46.317Z,16.92
2022-11-17T22:32:12.969Z,17.15
2022-11-17T22:34:39.744Z,18.52
2022-11-17T22:37:06.587Z,18.40
2022-11-17T22:39:33.183Z,17.90
2022-11-17T22:42:00.162Z,16.73
2022-11-17T22:44:26.768Z,19.10
2022-11-17T22:46:53.350Z,16.70
2022-11-17T22:49:20.189Z,18.60
2022-11-17T22:52:05.936Z,15.70
2022-11-17T22:54:32.821Z,16.17
2022-11-17T22:56:59.945Z,19.02
2022-11-17T22:59:27.793Z,19.85
2022-11-17T23:01:55.338Z,15.90
2022-11-17T23:04:25.392Z,20.88
2022-11-17T23:06:52.107Z,17.05
2022-11-17T23:09:19.100Z,16.55
2022-11-17T23:11:46.106Z,19.38
2022-11-17T23:14:14.603Z,15.77
2022-11-17T23:16:41.828Z,20.50
2022-11-17T23:19:12.557Z,20.08
2022-11-17T23:21:39.643Z,23.17
2022-11-17T23:24:06.803Z,18.90
2022-11-17T23:26:33.552Z,17.55
2022-11-17T23:29:00.336Z,21.80
2022-11-17T23:31:30.026Z,23.75
2022-11-17T23:33:56.581Z,22.02
2022-11-17T23:36:23.626Z,21.40
2022-11-17T23:38:51.252Z,22.05
2022-11-17T23:41:20.568Z,22.85
2022-11-17T23:43:51.188Z,22.65
2022-11-17T23:46:20.046Z,24.55
2022-11-17T23:48:46.922Z,26.30
2022-11-17T23:51:15.991Z,23.83
2022-11-17T23:53:42.844Z,23.00
2022-11-17T23:56:10.442Z,22.90
2022-11-17T23:58:37.975Z,24.90
